createdAt,value
2022-12-03T00:01:24.033Z,60.83
2022-12-03T00:03:52.196Z,72.90
2022-12-03T00:06:20.340Z,66.87
2022-12-03T00:08:48.327Z,63.80
2022-12-03T00:11:16.264Z,66.93
2022-12-03T00:13:45.456Z,55.67
2022-12-03T00:16:14.902Z,60.63
2022-12-03T00:18:42.881Z,63.73
2022-12-03T00:21:10.845Z,66.47
2022-12-03T00:23:42.313Z,62.47
2022-12-03T00:26:10.586Z,66.80
2022-12-03T00:28:38.605Z,67.67
2022-12-03T00:31:06.833Z,69.20
2022-12-03T00:33:36.198Z,66.13
2022-12-03T00:36:04.224Z,62.73
2022-12-03T00:38:32.224Z,59.73
2022-12-03T00:41:00.209Z,66.97
2022-12-03T00:43:28.177Z,67.67
2022-12-03T00:45:56.351Z,67.17
2022-12-03T00:48:24.423Z,85.23
2022-12-03T00:50:53.967Z,72.13
2022-12-03T00:53:21.946Z,72.87
2022-12-03T00:55:50.664Z,69.10
2022-12-03T00:58:18.687Z,68.43
2022-12-03T01:00:46.645Z,64.33
2022-12-03T01:03:14.619Z,70.60
2022-12-03T01:05:42.608Z,59.67
2022-12-03T01:08:12.004Z,70.17
2022-12-03T01:10:40.060Z,64.27
2022-12-03T01:13:08.060Z,59.10
2022-12-03T01:15:36.216Z,60.37
2022-12-03T01:18:04.239Z,61.37
2022-12-03T01:20:32.217Z,64.13
2022-12-03T01:23:00.196Z,63.63
2022-12-03T01:25:29.547Z,67.50
2022-12-03T01:27:57.630Z,69.07
2022-12-03T01:30:25.619Z,65.10
2022-12-03T01:32:52.814Z,65.40
2022-12-03T01:35:20.800Z,61.57
2022-12-03T01:37:48.753Z,60.87
2022-12-03T01:40:20.869Z,58.80
2022-12-03T01:42:50.238Z,61.13
2022-12-03T01:45:23.695Z,63.97
2022-12-03T01:47:52.022Z,63.13
2022-12-03T01:50:28.364Z,60.37
2022-12-03T01:52:59.363Z,60.90
2022-12-03T01:55:27.779Z,67.60
2022-12-03T01:58:00.400Z,63.90
2022-12-03T02:00:29.469Z,60.20
2022-12-03T02:03:00.644Z,56.93
2022-12-03T02:05:30.822Z,60.87
2022-12-03T02:08:00.305Z,56.83
2022-12-03T02:10:32.671Z,62.53
2022-12-03T02:13:06.312Z,60.57
2022-12-03T02:15:34.378Z,56.33
2022-12-03T02:18:02.902Z,63.23
2022-12-03T02:20:34.376Z,64.50
2022-12-03T02:23:09.744Z,62.67
2022-12-03T02:25:39.446Z,58.77
2022-12-03T02:28:10.212Z,57.00
2022-12-03T02:30:38.677Z,54.37
2022-12-03T02:33:06.876Z,56.47
2022-12-03T02:35:36.943Z,53.67
2022-12-03T02:38:15.740Z,53.63
2022-12-03T02:40:46.491Z,61.30
2022-12-03T02:43:16.574Z,59.83
2022-12-03T02:45:46.921Z,53.70
2022-12-03T02:48:18.936Z,53.83
2022-12-03T02:50:50.660Z,55.13
2022-12-03T02:53:21.246Z,60.23
2022-12-03T02:55:51.627Z,61.93
2022-12-03T02:58:20.333Z,59.50
2022-12-03T03:00:49.446Z,56.30
2022-12-03T03:03:18.376Z,54.70
2022-12-03T03:05:47.917Z,55.90
2022-12-03T03:08:16.201Z,63.00
2022-12-03T03:10:45.119Z,56.90
2022-12-03T03:13:16.674Z,52.10
2022-12-03T03:15:45.331Z,59.23
2022-12-03T03:18:15.203Z,47.87
2022-12-03T03:20:43.740Z,56.37
2022-12-03T03:23:17.808Z,58.33
2022-12-03T03:25:48.151Z,54.17
2022-12-03T03:28:18.579Z,55.67
2022-12-03T03:30:47.815Z,54.93
2022-12-03T03:33:17.859Z,56.93
2022-12-03T03:35:47.133Z,54.77
2022-12-03T03:38:15.895Z,57.17
2022-12-03T03:40:44.416Z,51.63
2022-12-03T03:43:13.878Z,50.93
2022-12-03T03:45:44.112Z,56.93
2022-12-03T03:48:13.342Z,46.13
2022-12-03T03:50:42.041Z,52.07
2022-12-03T03:53:10.572Z,48.53
2022-12-03T03:55:39.489Z,49.50
2022-12-03T03:58:07.663Z,49.17
2022-12-03T04:00:37.416Z,47.93
2022-12-03T04:03:07.263Z,57.00
2022-12-03T04:05:35.261Z,50.33
2022-12-03T04:08:03.306Z,48.77
2022-12-03T04:10:48.699Z,53.23
2022-12-03T04:13:16.724Z,44.23
2022-12-03T04:15:44.672Z,43.47
2022-12-03T04:18:31.328Z,48.60
2022-12-03T04:21:13.169Z,49.87
2022-12-03T04:23:41.173Z,51.23
2022-12-03T04:26:26.430Z,51.23
2022-12-03T04:28:54.429Z,48.07
2022-12-03T04:31:39.870Z,48.73
2022-12-03T04:34:27.612Z,49.50
2022-12-03T04:36:55.577Z,50.03
2022-12-03T04:39:23.592Z,53.97
2022-12-03T04:41:51.617Z,50.43
2022-12-03T04:44:36.211Z,55.47
2022-12-03T04:47:08.122Z,56.47
2022-12-03T04:49:39.848Z,51.93
2022-12-03T04:52:08.348Z,56.00
2022-12-03T04:54:36.812Z,54.43
2022-12-03T04:57:05.847Z,57.53
2022-12-03T04:59:34.307Z,48.23
2022-12-03T05:02:02.471Z,52.73
2022-12-03T05:04:30.433Z,50.07
2022-12-03T05:06:59.781Z,51.77
2022-12-03T05:09:27.758Z,53.73
2022-12-03T05:11:55.916Z,47.77
2022-12-03T05:14:23.864Z,53.40
2022-12-03T05:16:51.909Z,53.30
2022-12-03T05:19:19.956Z,57.47
2022-12-03T05:21:46.945Z,53.33
2022-12-03T05:24:16.338Z,61.20
2022-12-03T05:26:44.324Z,55.43
2022-12-03T05:29:12.267Z,58.77
2022-12-03T05:31:40.279Z,58.57
2022-12-03T05:34:08.225Z,56.47
2022-12-03T05:36:36.201Z,56.97
2022-12-03T05:39:04.193Z,59.23
2022-12-03T05:41:50.877Z,62.37
2022-12-03T05:44:20.689Z,62.20
2022-12-03T05:46:48.961Z,62.07
2022-12-03T05:49:16.938Z,62.23
2022-12-03T05:51:44.940Z,61.37
2022-12-03T05:54:12.890Z,68.20
2022-12-03T05:56:42.258Z,66.33
2022-12-03T05:59:10.269Z,66.27
2022-12-03T06:01:38.218Z,59.47
2022-12-03T06:04:06.522Z,67.00
2022-12-03T06:06:34.598Z,69.20
2022-12-03T06:09:02.604Z,67.37
2022-12-03T06:11:30.853Z,72.30
2022-12-03T06:14:00.158Z,70.93
2022-12-03T06:16:28.415Z,71.67
2022-12-03T06:18:56.460Z,70.93
2022-12-03T06:21:24.561Z,74.50
2022-12-03T06:23:52.508Z,72.00
2022-12-03T06:26:20.487Z,68.70
2022-12-03T06:28:49.376Z,70.40
2022-12-03T06:31:18.901Z,71.37
2022-12-03T06:33:46.944Z,72.47
2022-12-03T06:36:17.781Z,70.00
2022-12-03T06:38:49.441Z,71.30
2022-12-03T06:41:17.420Z,73.27
2022-12-03T06:43:45.383Z,69.57
2022-12-03T06:46:13.397Z,73.00
2022-12-03T06:48:42.749Z,79.80
2022-12-03T06:51:10.719Z,75.87
2022-12-03T06:53:38.669Z,73.47
2022-12-03T06:56:07.207Z,73.03
2022-12-03T06:58:35.203Z,74.80
2022-12-03T07:01:03.147Z,72.47
2022-12-03T07:03:31.097Z,74.13
2022-12-03T07:06:00.474Z,75.30
2022-12-03T07:08:28.676Z,80.07
2022-12-03T07:10:56.660Z,76.57
2022-12-03T07:13:24.603Z,72.93
2022-12-03T07:15:52.613Z,76.77
2022-12-03T07:18:20.597Z,74.37
2022-12-03T07:20:48.925Z,76.57
2022-12-03T07:23:18.248Z,84.50
2022-12-03T07:25:46.339Z,76.40
2022-12-03T07:28:14.288Z,73.30
2022-12-03T07:30:42.274Z,82.47
2022-12-03T07:33:10.212Z,89.97
2022-12-03T07:35:38.194Z,82.67
2022-12-03T07:38:06.414Z,84.37
2022-12-03T07:40:35.718Z,80.00
2022-12-03T07:43:03.711Z,76.50
2022-12-03T07:45:31.782Z,81.93
2022-12-03T07:47:59.783Z,77.20
2022-12-03T07:50:28.406Z,80.77
2022-12-03T07:52:56.605Z,74.93
2022-12-03T07:55:25.321Z,79.30
2022-12-03T07:57:54.642Z,88.43
2022-12-03T08:00:23.250Z,67.83
2022-12-03T08:02:51.244Z,72.23
2022-12-03T08:05:19.440Z,72.93
2022-12-03T08:07:47.473Z,82.60
2022-12-03T08:10:15.501Z,84.67
2022-12-03T08:12:43.638Z,84.00
2022-12-03T08:15:16.084Z,79.53
2022-12-03T08:17:45.752Z,81.33
2022-12-03T08:20:16.916Z,84.83
2022-12-03T08:22:46.425Z,88.97
2022-12-03T08:25:18.210Z,85.70
2022-12-03T08:27:46.200Z,89.73
2022-12-03T08:30:17.590Z,79.70
2022-12-03T08:32:46.061Z,88.80
2022-12-03T08:35:15.543Z,82.57
2022-12-03T08:37:43.509Z,88.67
2022-12-03T08:40:23.022Z,89.80
2022-12-03T08:42:51.323Z,80.83
2022-12-03T08:45:42.728Z,89.23
2022-12-03T08:48:36.925Z,86.17
2022-12-03T08:51:15.189Z,83.47
2022-12-03T08:53:47.268Z,79.90
2022-12-03T08:56:22.879Z,84.90
2022-12-03T08:58:54.146Z,80.97
2022-12-03T09:01:32.677Z,125.40
2022-12-03T09:04:22.409Z,119.97
2022-12-03T09:06:50.912Z,95.77
2022-12-03T09:09:19.095Z,106.63
2022-12-03T09:11:47.345Z,93.27
2022-12-03T09:14:18.928Z,95.30
2022-12-03T09:16:49.186Z,88.30
2022-12-03T09:19:17.231Z,77.17
2022-12-03T09:21:45.234Z,79.03
2022-12-03T09:24:13.201Z,93.60
2022-12-03T09:26:41.171Z,93.80
2022-12-03T09:29:12.385Z,91.00
2022-12-03T09:31:41.287Z,85.70
2022-12-03T09:34:10.827Z,91.37
2022-12-03T09:36:38.948Z,85.77
2022-12-03T09:39:07.219Z,95.47
2022-12-03T09:41:35.190Z,98.33
2022-12-03T09:44:04.910Z,114.83
2022-12-03T09:46:34.913Z,88.87
2022-12-03T09:49:03.197Z,93.37
2022-12-03T09:51:35.340Z,91.73
2022-12-03T09:54:05.391Z,91.67
2022-12-03T09:56:34.986Z,83.80
2022-12-03T09:59:03.391Z,75.87
2022-12-03T10:01:32.266Z,81.00
2022-12-03T10:04:00.347Z,82.63
2022-12-03T10:06:28.361Z,86.13
2022-12-03T10:08:59.995Z,93.77
2022-12-03T10:11:29.908Z,88.53
2022-12-03T10:13:59.618Z,127.40
2022-12-03T10:16:30.490Z,112.13
2022-12-03T10:19:01.782Z,103.80
2022-12-03T10:21:33.268Z,98.03
2022-12-03T10:24:25.537Z,109.40
2022-12-03T10:26:54.719Z,106.10
2022-12-03T10:29:28.407Z,99.40
2022-12-03T10:32:03.379Z,109.03
2022-12-03T10:34:32.987Z,101.87
2022-12-03T10:37:16.393Z,99.10
2022-12-03T10:40:00.571Z,90.83
2022-12-03T10:42:30.720Z,102.43
2022-12-03T10:45:17.996Z,117.07
2022-12-03T10:48:04.254Z,114.80
2022-12-03T10:50:32.655Z,116.37
2022-12-03T10:53:00.787Z,113.43
2022-12-03T10:55:33.650Z,99.73
2022-12-03T10:58:01.705Z,106.30
2022-12-03T11:00:29.673Z,98.90
2022-12-03T11:02:57.674Z,106.27
2022-12-03T11:05:28.245Z,112.43
2022-12-03T11:07:57.088Z,112.80
2022-12-03T11:10:25.838Z,100.50
2022-12-03T11:13:29.948Z,108.43
2022-12-03T11:15:58.789Z,110.43
2022-12-03T11:19:02.397Z,123.87
2022-12-03T11:21:30.543Z,110.30
2022-12-03T11:24:20.233Z,116.23
2022-12-03T11:27:08.827Z,123.47
2022-12-03T11:29:53.558Z,125.90
2022-12-03T11:33:09.704Z,116.90
2022-12-03T11:35:59.740Z,110.43
2022-12-03T11:38:49.152Z,103.60
2022-12-03T11:41:22.473Z,115.03
2022-12-03T11:44:00.834Z,108.40
2022-12-03T11:46:39.483Z,112.93
2022-12-03T11:49:44.188Z,103.20
2022-12-03T11:52:23.114Z,112.17
2022-12-03T11:54:54.892Z,112.63
2022-12-03T11:57:38.345Z,108.00
2022-12-03T12:00:20.579Z,107.43
2022-12-03T12:02:51.292Z,112.53
2022-12-03T12:05:23.455Z,113.00
2022-12-03T12:07:52.232Z,97.00
2022-12-03T12:10:43.750Z,96.93
2022-12-03T12:13:51.442Z,94.40
2022-12-03T12:16:39.918Z,94.43
2022-12-03T12:19:31.879Z,112.50
2022-12-03T12:22:28.480Z,106.23
2022-12-03T12:24:57.836Z,103.97
2022-12-03T12:27:32.393Z,107.13
2022-12-03T12:30:01.717Z,98.40
2022-12-03T12:32:30.993Z,100.60
2022-12-03T12:35:03.437Z,105.50
2022-12-03T12:37:37.143Z,93.57
2022-12-03T12:40:13.907Z,101.03
2022-12-03T12:42:50.185Z,105.47
2022-12-03T12:45:21.021Z,100.70
2022-12-03T12:47:51.752Z,105.90
2022-12-03T12:50:21.377Z,94.97
2022-12-03T12:52:54.754Z,101.73
2022-12-03T12:55:24.468Z,94.97
2022-12-03T12:57:52.802Z,107.07
2022-12-03T13:00:23.884Z,104.03
2022-12-03T13:02:56.483Z,101.90
2022-12-03T13:05:27.849Z,93.83
2022-12-03T13:07:56.578Z,97.17
2022-12-03T13:10:39.440Z,105.47
2022-12-03T13:13:21.586Z,95.40
2022-12-03T13:15:53.187Z,89.50
2022-12-03T13:18:39.638Z,98.00
2022-12-03T13:21:35.246Z,94.60
2022-12-03T13:24:04.021Z,96.70
2022-12-03T13:26:39.516Z,97.83
2022-12-03T13:29:13.082Z,102.90
2022-12-03T13:31:44.130Z,97.43
2022-12-03T13:34:17.047Z,94.73
2022-12-03T13:39:38.953Z,91.97
2022-12-03T13:42:38.060Z,94.97
2022-12-03T13:45:32.096Z,92.53
2022-12-03T13:48:02.478Z,104.77
2022-12-03T13:50:35.394Z,98.20
2022-12-03T13:53:16.015Z,114.67
2022-12-03T13:55:46.849Z,92.93
2022-12-03T13:58:14.831Z,92.87
2022-12-03T14:00:42.803Z,105.60
2022-12-03T14:03:10.811Z,98.13
2022-12-03T14:05:38.822Z,97.93
2022-12-03T14:08:08.292Z,107.07
2022-12-03T14:10:36.330Z,96.67
2022-12-03T14:13:04.312Z,96.00
2022-12-03T14:15:32.264Z,89.93
2022-12-03T14:18:00.253Z,94.47
2022-12-03T14:20:28.224Z,91.40
2022-12-03T14:22:59.222Z,103.03
2022-12-03T14:25:29.025Z,106.17
2022-12-03T14:27:56.985Z,104.60
2022-12-03T14:30:24.985Z,108.00
2022-12-03T14:32:52.948Z,108.40
2022-12-03T14:35:20.908Z,109.20
2022-12-03T14:37:48.870Z,105.17
2022-12-03T14:40:21.379Z,108.80
2022-12-03T14:42:51.225Z,105.83
2022-12-03T14:45:20.797Z,97.70
2022-12-03T14:47:48.860Z,93.43
2022-12-03T14:50:17.018Z,101.90
2022-12-03T14:52:45.003Z,96.47
2022-12-03T14:55:12.986Z,104.37
2022-12-03T14:57:40.963Z,116.07
2022-12-03T15:00:11.813Z,112.37
2022-12-03T15:02:39.854Z,108.37
2022-12-03T15:05:08.609Z,109.53
2022-12-03T15:07:38.622Z,102.13
2022-12-03T15:10:07.998Z,122.40
2022-12-03T15:12:36.115Z,119.40
2022-12-03T15:15:04.202Z,119.17
2022-12-03T15:17:33.545Z,122.67
2022-12-03T15:20:01.566Z,106.37
2022-12-03T15:22:29.555Z,104.80
2022-12-03T15:24:57.515Z,110.80
2022-12-03T15:27:25.517Z,112.70
2022-12-03T15:29:53.673Z,118.13
2022-12-03T15:32:21.717Z,111.23
2022-12-03T15:34:51.915Z,114.73
2022-12-03T15:37:20.475Z,128.57
2022-12-03T15:39:49.031Z,118.47
2022-12-03T15:42:17.108Z,124.17
2022-12-03T15:44:45.032Z,139.17
2022-12-03T15:47:12.989Z,133.87
2022-12-03T15:49:40.985Z,129.17
2022-12-03T15:52:10.294Z,150.80
2022-12-03T15:54:38.240Z,139.30
2022-12-03T15:57:06.227Z,146.57
2022-12-03T15:59:34.192Z,133.80
2022-12-03T16:02:02.247Z,126.30
2022-12-03T16:04:30.295Z,118.73
2022-12-03T16:06:58.262Z,141.50
2022-12-03T16:09:27.950Z,135.37
2022-12-03T16:11:55.932Z,120.23
2022-12-03T16:14:23.900Z,138.90
2022-12-03T16:16:52.044Z,142.10
2022-12-03T16:19:20.023Z,113.77
2022-12-03T16:21:48.029Z,153.87
2022-12-03T16:24:16.003Z,163.47
2022-12-03T16:26:45.320Z,130.00
2022-12-03T16:29:13.324Z,120.87
2022-12-03T16:31:41.365Z,119.00
2022-12-03T16:34:09.411Z,110.67
2022-12-03T16:36:37.336Z,120.30
2022-12-03T16:39:05.618Z,108.50
2022-12-03T16:41:33.598Z,119.00
2022-12-03T16:44:03.621Z,98.33
2022-12-03T16:46:31.708Z,98.50
2022-12-03T16:49:00.199Z,106.73
2022-12-03T16:51:30.305Z,107.03
2022-12-03T16:53:58.336Z,129.87
2022-12-03T16:56:26.275Z,122.03
2022-12-03T16:58:54.229Z,121.20
2022-12-03T17:01:24.134Z,118.13
2022-12-03T17:03:52.192Z,105.27
2022-12-03T17:06:20.176Z,110.63
2022-12-03T17:08:49.827Z,112.80
2022-12-03T17:11:18.318Z,101.90
2022-12-03T17:13:46.294Z,112.27
2022-12-03T17:16:14.342Z,101.03
2022-12-03T17:18:43.918Z,100.93
2022-12-03T17:21:11.911Z,104.53
2022-12-03T17:23:39.940Z,98.47
2022-12-03T17:26:07.925Z,117.97
2022-12-03T17:28:35.903Z,100.97
2022-12-03T17:31:04.041Z,103.47
2022-12-03T17:33:32.115Z,97.13
2022-12-03T17:36:01.424Z,105.63
2022-12-03T17:38:32.803Z,108.03
2022-12-03T17:41:05.389Z,114.33
2022-12-03T17:43:33.326Z,112.10
2022-12-03T17:46:01.395Z,97.37
2022-12-03T17:48:31.316Z,109.93
2022-12-03T17:50:59.440Z,100.17
2022-12-03T17:53:28.815Z,99.60
2022-12-03T17:55:56.782Z,103.63
2022-12-03T17:58:26.640Z,99.07
2022-12-03T18:01:00.292Z,101.40
2022-12-03T18:03:30.384Z,102.80
2022-12-03T18:05:58.494Z,106.63
2022-12-03T18:08:27.831Z,96.70
2022-12-03T18:10:55.828Z,89.57
2022-12-03T18:13:23.773Z,100.13
2022-12-03T18:15:51.761Z,95.37
2022-12-03T18:18:19.760Z,85.57
2022-12-03T18:20:47.789Z,90.53
2022-12-03T18:23:15.834Z,94.70
2022-12-03T18:25:45.219Z,92.67
2022-12-03T18:28:13.192Z,90.53
2022-12-03T18:30:41.141Z,84.57
2022-12-03T18:33:09.104Z,83.63
2022-12-03T18:35:37.202Z,84.17
2022-12-03T18:38:05.458Z,90.10
2022-12-03T18:40:33.412Z,89.33
2022-12-03T18:43:02.883Z,83.07
2022-12-03T18:45:30.843Z,81.70
2022-12-03T18:47:58.875Z,85.73
2022-12-03T18:50:26.874Z,84.33
2022-12-03T18:52:54.901Z,84.63
2022-12-03T18:55:23.284Z,79.93
2022-12-03T18:57:51.270Z,81.67
2022-12-03T19:00:21.211Z,86.23
2022-12-03T19:03:05.140Z,84.43
2022-12-03T19:05:34.592Z,81.03
2022-12-03T19:08:03.032Z,84.40
2022-12-03T19:10:31.128Z,79.80
2022-12-03T19:12:59.115Z,84.13
2022-12-03T19:15:28.421Z,79.93
2022-12-03T19:17:56.407Z,83.67
2022-12-03T19:20:24.376Z,80.50
2022-12-03T19:22:52.349Z,88.10
2022-12-03T19:25:20.340Z,76.10
2022-12-03T19:27:50.093Z,81.10
2022-12-03T19:30:18.641Z,79.47
2022-12-03T19:32:51.545Z,82.33
2022-12-03T19:35:21.258Z,83.43
2022-12-03T19:37:49.543Z,75.53
2022-12-03T19:40:18.226Z,81.60
2022-12-03T19:42:46.195Z,80.13
2022-12-03T19:45:14.164Z,78.33
2022-12-03T19:47:42.140Z,85.40
2022-12-03T19:50:19.286Z,89.30
2022-12-03T19:52:50.403Z,83.90
2022-12-03T19:55:19.533Z,87.30
2022-12-03T19:57:47.489Z,87.43
2022-12-03T20:00:16.731Z,85.37
2022-12-03T20:02:44.764Z,86.70
2022-12-03T20:05:14.166Z,90.30
2022-12-03T20:07:42.186Z,80.80
2022-12-03T20:10:10.816Z,87.27
2022-12-03T20:12:38.794Z,87.43
2022-12-03T20:15:07.740Z,90.70
2022-12-03T20:17:35.738Z,82.67
2022-12-03T20:20:03.861Z,93.40
2022-12-03T20:22:33.240Z,88.77
2022-12-03T20:25:03.700Z,95.63
2022-12-03T20:27:32.710Z,91.83
2022-12-03T20:30:00.724Z,90.90
2022-12-03T20:32:28.703Z,90.40
2022-12-03T20:34:56.640Z,87.57
2022-12-03T20:37:24.584Z,92.90
2022-12-03T20:39:54.177Z,90.77
2022-12-03T20:42:22.306Z,88.27
2022-12-03T20:44:52.579Z,93.17
2022-12-03T20:47:20.703Z,84.60
2022-12-03T20:49:48.636Z,91.13
2022-12-03T20:52:16.611Z,90.07
2022-12-03T20:54:45.692Z,83.83
2022-12-03T20:57:15.027Z,87.63
2022-12-03T20:59:43.019Z,84.60
2022-12-03T21:02:11.421Z,91.90
2022-12-03T21:04:39.573Z,84.13
2022-12-03T21:07:07.559Z,93.07
2022-12-03T21:09:35.504Z,84.07
2022-12-03T21:12:03.510Z,89.30
2022-12-03T21:14:33.492Z,91.37
2022-12-03T21:17:09.717Z,89.27
2022-12-03T21:19:38.552Z,88.80
2022-12-03T21:22:07.363Z,84.27
2022-12-03T21:24:35.501Z,82.93
2022-12-03T21:27:03.684Z,79.40
2022-12-03T21:29:33.092Z,70.20
2022-12-03T21:32:01.114Z,78.17
2022-12-03T21:34:35.583Z,83.27
2022-12-03T21:37:04.711Z,85.07
2022-12-03T21:39:32.728Z,83.33
2022-12-03T21:42:34.312Z,78.87
2022-12-03T21:44:50.014Z,86.93
2022-12-03T21:47:18.048Z,78.37
2022-12-03T21:49:46.103Z,76.43
2022-12-03T21:52:14.063Z,72.83
2022-12-03T21:54:42.062Z,81.10
2022-12-03T21:57:10.045Z,74.03
2022-12-03T21:59:38.022Z,81.53
2022-12-03T22:02:07.732Z,73.13
2022-12-03T22:04:35.865Z,72.50
2022-12-03T22:07:04.760Z,79.63
2022-12-03T22:09:34.071Z,81.57
2022-12-03T22:12:02.113Z,90.50
2022-12-03T22:14:30.354Z,80.97
2022-12-03T22:16:58.295Z,84.70
2022-12-03T22:19:27.936Z,86.23
2022-12-03T22:21:55.922Z,83.90
2022-12-03T22:24:24.101Z,82.70
2022-12-03T22:26:53.510Z,79.87
2022-12-03T22:29:21.519Z,85.07
2022-12-03T22:31:49.511Z,85.60
2022-12-03T22:34:17.521Z,75.90
2022-12-03T22:36:47.085Z,85.77
2022-12-03T22:39:15.095Z,80.37
2022-12-03T22:41:43.061Z,84.87
2022-12-03T22:44:11.843Z,85.83
2022-12-03T22:46:39.958Z,79.57
2022-12-03T22:49:08.001Z,78.30
2022-12-03T22:51:36.161Z,81.17
2022-12-03T22:54:05.786Z,84.93
2022-12-03T22:56:34.199Z,74.23
2022-12-03T22:59:02.214Z,77.40
2022-12-03T23:01:32.319Z,82.47
2022-12-03T23:04:00.663Z,77.93
2022-12-03T23:06:29.175Z,70.13
2022-12-03T23:08:57.698Z,77.80
2022-12-03T23:11:27.921Z,77.70
2022-12-03T23:13:56.373Z,76.03
2022-12-03T23:16:27.216Z,81.23
2022-12-03T23:18:55.628Z,83.90
2022-12-03T23:21:29.872Z,76.37
2022-12-03T23:23:58.430Z,81.60
2022-12-03T23:26:28.806Z,77.10
2022-12-03T23:28:57.265Z,72.83
2022-12-03T23:31:27.271Z,73.13
2022-12-03T23:33:56.585Z,74.00
2022-12-03T23:36:25.842Z,74.70
2022-12-03T23:38:54.617Z,69.53
2022-12-03T23:41:24.651Z,70.23
2022-12-03T23:43:54.249Z,71.40
2022-12-03T23:46:24.125Z,68.27
2022-12-03T23:48:53.187Z,76.33
2022-12-03T23:51:23.253Z,73.03
2022-12-03T23:53:52.784Z,75.33
2022-12-03T23:56:23.018Z,71.53
2022-12-03T23:58:51.515Z,72.63
